Time;durP1;ratioP1;P1;durP2;ratioP2;P2;SDS_P1;SDS_P2;PMS_P1;PMS_P2;Temp;Humidity;BMP_temperature;BMP_pressure;BME280_temperature;BME280_humidity;BME280_pressure;Samples;Min_cycle;Max_cycle;Signal;HPM_P1;HPM_P2
2023/03/03 00:00:15;;;;;;;41.88;25.38;;;;;;;;;;5036537;28;20067;-68
2023/03/03 00:03:03;;;;;;;47.65;26.58;;;;;;;;;;5035971;28;20469;-68
2023/03/03 00:05:49;;;;;;;42.30;25.60;;;;;;;;;;5035907;28;20492;-68
2023/03/03 00:08:34;;;;;;;47.70;27.52;;;;;;;;;;5035875;28;20040;-68
2023/03/03 00:11:20;;;;;;;51.20;26.73;;;;;;;;;;5034316;28;20021;-68
2023/03/03 00:14:16;;;;;;;47.13;26.58;;;;;;;;;;5034397;28;20511;-68
2023/03/03 00:17:13;;;;;;;43.70;25.95;;;;;;;;;;5035950;28;20022;-68
2023/03/03 00:20:01;;;;;;;47.10;26.40;;;;;;;;;;5034136;28;20021;-67
2023/03/03 00:22:47;;;;;;;43.30;25.52;;;;;;;;;;5036178;28;20033;-68
2023/03/03 00:25:33;;;;;;;45.95;26.55;;;;;;;;;;5035706;28;20032;-68
2023/03/03 00:28:28;;;;;;;49.90;27.80;;;;;;;;;;5035634;28;20021;-68
2023/03/03 00:31:18;;;;;;;46.25;25.80;;;;;;;;;;5035712;28;20018;-67
2023/03/03 00:34:10;;;;;;;45.42;26.08;;;;;;;;;;5034566;28;20377;-68
2023/03/03 00:36:57;;;;;;;46.28;26.38;;;;;;;;;;5035272;28;20071;-69
2023/03/03 00:39:42;;;;;;;49.42;27.77;;;;;;;;;;5035513;28;20022;-67
2023/03/03 00:42:28;;;;;;;41.53;24.98;;;;;;;;;;5035357;28;20021;-68
2023/03/03 00:45:21;;;;;;;47.10;26.90;;;;;;;;;;5033735;28;20025;-68
2023/03/03 00:48:13;;;;;;;44.05;26.02;;;;;;;;;;5033315;28;20465;-68
2023/03/03 00:51:00;;;;;;;45.97;26.58;;;;;;;;;;5036230;28;20338;-68
2023/03/03 00:53:45;;;;;;;45.97;26.25;;;;;;;;;;5035107;28;20014;-69
2023/03/03 00:56:31;;;;;;;43.03;25.75;;;;;;;;;;5034769;28;20026;-68
2023/03/03 00:59:16;;;;;;;47.53;26.75;;;;;;;;;;5036762;28;20087;-68
2023/03/03 01:02:02;;;;;;;48.20;26.23;;;;;;;;;;5035275;28;20164;-68
2023/03/03 01:04:49;;;;;;;47.53;26.33;;;;;;;;;;5035453;28;20465;-67
2023/03/03 01:07:35;;;;;;;44.65;26.65;;;;;;;;;;5035387;28;20040;-68
2023/03/03 01:10:20;;;;;;;45.47;26.85;;;;;;;;;;5034347;28;20060;-68
2023/03/03 01:13:06;;;;;;;46.67;26.42;;;;;;;;;;5035495;28;20021;-67
2023/03/03 01:15:52;;;;;;;45.13;25.83;;;;;;;;;;5036854;28;20077;-67
2023/03/03 01:18:40;;;;;;;46.08;26.10;;;;;;;;;;5034124;28;20353;-67
2023/03/03 01:21:26;;;;;;;44.40;25.55;;;;;;;;;;5035495;28;20032;-68
2023/03/03 01:24:11;;;;;;;47.20;26.13;;;;;;;;;;5034678;28;20091;-68
2023/03/03 01:26:57;;;;;;;47.28;27.63;;;;;;;;;;5035483;28;20017;-68
2023/03/03 01:29:42;;;;;;;47.53;27.05;;;;;;;;;;5034781;28;20026;-68
2023/03/03 01:32:28;;;;;;;46.30;27.23;;;;;;;;;;5032927;28;20053;-69
2023/03/03 01:35:14;;;;;;;44.70;25.67;;;;;;;;;;5034798;28;20446;-68
2023/03/03 01:38:00;;;;;;;51.60;28.00;;;;;;;;;;5035338;28;20037;-67
2023/03/03 01:40:51;;;;;;;47.05;26.80;;;;;;;;;;5034625;28;20025;-68
2023/03/03 01:43:42;;;;;;;44.58;25.35;;;;;;;;;;5035070;28;20038;-68
2023/03/03 01:46:34;;;;;;;50.63;28.98;;;;;;;;;;5035298;28;20465;-69
2023/03/03 01:49:30;;;;;;;52.15;28.08;;;;;;;;;;5035224;28;20021;-67
2023/03/03 01:52:23;;;;;;;49.85;27.38;;;;;;;;;;5035142;28;20446;-68
2023/03/03 01:55:14;;;;;;;44.97;26.20;;;;;;;;;;5034372;28;20068;-69
2023/03/03 01:58:03;;;;;;;44.90;26.38;;;;;;;;;;5034976;28;20052;-69
2023/03/03 02:00:52;;;;;;;49.25;27.63;;;;;;;;;;5035557;28;20108;-68
2023/03/03 02:03:37;;;;;;;47.47;27.88;;;;;;;;;;5035503;28;20306;-69
2023/03/03 02:06:26;;;;;;;47.95;27.67;;;;;;;;;;5033032;28;20037;-69
2023/03/03 02:09:16;;;;;;;48.00;27.70;;;;;;;;;;5035461;28;20028;-69
2023/03/03 02:12:05;;;;;;;52.17;28.90;;;;;;;;;;5034554;28;20053;-69
2023/03/03 02:14:51;;;;;;;49.22;27.60;;;;;;;;;;5034665;28;20029;-68
2023/03/03 02:17:37;;;;;;;54.35;28.80;;;;;;;;;;5034315;28;20033;-69
2023/03/03 02:20:22;;;;;;;46.22;26.98;;;;;;;;;;5034406;28;20462;-69
2023/03/03 02:23:08;;;;;;;50.42;28.23;;;;;;;;;;5034891;28;20025;-69
2023/03/03 02:25:57;;;;;;;51.38;27.83;;;;;;;;;;5034675;28;20456;-68
2023/03/03 02:28:42;;;;;;;49.92;27.83;;;;;;;;;;5034425;28;20409;-69
2023/03/03 02:31:29;;;;;;;45.88;27.13;;;;;;;;;;5034196;28;20014;-68
2023/03/03 02:34:14;;;;;;;49.95;27.70;;;;;;;;;;5035366;28;20438;-68
2023/03/03 02:37:02;;;;;;;47.53;27.20;;;;;;;;;;5033688;28;20025;-69
2023/03/03 02:39:47;;;;;;;47.70;27.02;;;;;;;;;;5034737;28;20025;-69
2023/03/03 02:42:33;;;;;;;49.70;27.35;;;;;;;;;;5032716;28;20013;-69
2023/03/03 02:45:19;;;;;;;44.75;26.45;;;;;;;;;;5037688;28;20018;-68
2023/03/03 02:48:04;;;;;;;46.35;26.67;;;;;;;;;;5037908;28;20036;-69
2023/03/03 02:50:50;;;;;;;48.53;27.08;;;;;;;;;;5036568;28;20022;-69
2023/03/03 02:53:35;;;;;;;49.03;27.50;;;;;;;;;;5037726;28;20488;-69
2023/03/03 02:56:21;;;;;;;47.90;26.92;;;;;;;;;;5037468;28;20040;-68
2023/03/03 02:59:07;;;;;;;52.55;28.50;;;;;;;;;;5036441;28;20045;-69
2023/03/03 03:01:53;;;;;;;48.65;27.23;;;;;;;;;;5037822;28;20461;-70
2023/03/03 03:04:38;;;;;;;48.30;27.08;;;;;;;;;;5036000;28;20025;-69
2023/03/03 03:07:24;;;;;;;45.83;26.00;;;;;;;;;;5036924;28;20053;-69
2023/03/03 03:10:10;;;;;;;49.10;27.30;;;;;;;;;;5035973;28;20435;-69
2023/03/03 03:12:55;;;;;;;50.15;29.50;;;;;;;;;;5035342;28;20025;-69
2023/03/03 03:15:41;;;;;;;50.63;28.23;;;;;;;;;;5036639;28;20073;-69
2023/03/03 03:18:27;;;;;;;53.83;27.48;;;;;;;;;;5036218;28;20040;-68
2023/03/03 03:21:13;;;;;;;50.05;28.17;;;;;;;;;;5037658;28;20021;-69
2023/03/03 03:23:58;;;;;;;46.38;26.20;;;;;;;;;;5036653;28;20028;-68
2023/03/03 03:26:44;;;;;;;50.17;27.60;;;;;;;;;;5037597;28;20411;-68
2023/03/03 03:29:29;;;;;;;48.10;27.20;;;;;;;;;;5037479;28;20358;-68
2023/03/03 03:32:15;;;;;;;49.45;27.52;;;;;;;;;;5036030;28;20076;-68
2023/03/03 03:35:00;;;;;;;53.38;28.75;;;;;;;;;;5036531;28;20024;-68
2023/03/03 03:37:46;;;;;;;54.70;28.83;;;;;;;;;;5037046;28;20100;-70
2023/03/03 03:40:32;;;;;;;52.40;29.80;;;;;;;;;;5037083;28;20018;-69
2023/03/03 03:43:17;;;;;;;51.95;28.83;;;;;;;;;;5036551;28;20335;-68
2023/03/03 03:46:03;;;;;;;47.75;29.10;;;;;;;;;;5037007;28;20027;-69
2023/03/03 03:48:48;;;;;;;61.47;32.08;;;;;;;;;;5037394;28;20424;-68
2023/03/03 03:51:37;;;;;;;60.20;32.47;;;;;;;;;;5035350;28;20021;-69
2023/03/03 03:54:22;;;;;;;65.97;34.38;;;;;;;;;;5036589;28;20029;-69
2023/03/03 03:57:08;;;;;;;53.88;30.50;;;;;;;;;;5036748;28;20025;-69
2023/03/03 03:59:53;;;;;;;53.13;29.30;;;;;;;;;;5035491;28;20117;-69
2023/03/03 04:02:39;;;;;;;54.58;29.58;;;;;;;;;;5035228;28;20021;-69
2023/03/03 04:05:24;;;;;;;47.42;27.95;;;;;;;;;;5036146;28;20028;-69
2023/03/03 04:08:10;;;;;;;52.45;29.42;;;;;;;;;;5034693;28;20025;-68
2023/03/03 04:10:56;;;;;;;50.42;29.60;;;;;;;;;;5037533;28;20104;-69
2023/03/03 04:13:41;;;;;;;50.53;28.60;;;;;;;;;;5036273;28;20018;-73
2023/03/03 04:16:27;;;;;;;47.67;27.35;;;;;;;;;;5036716;28;20033;-68
2023/03/03 04:19:13;;;;;;;55.30;30.05;;;;;;;;;;5036363;28;20349;-70
2023/03/03 04:21:58;;;;;;;51.78;28.33;;;;;;;;;;5034875;28;20354;-69
2023/03/03 04:24:44;;;;;;;49.83;27.80;;;;;;;;;;5035180;28;20029;-68
2023/03/03 04:27:31;;;;;;;51.50;28.75;;;;;;;;;;5035668;28;20036;-69
2023/03/03 04:30:16;;;;;;;52.70;29.05;;;;;;;;;;5035148;28;20028;-68
2023/03/03 04:33:02;;;;;;;62.45;33.88;;;;;;;;;;5035016;28;20151;-68
2023/03/03 04:35:48;;;;;;;54.60;29.52;;;;;;;;;;5035879;28;20324;-70
2023/03/03 04:38:33;;;;;;;53.17;29.70;;;;;;;;;;5034333;28;20036;-68
2023/03/03 04:41:19;;;;;;;56.22;28.73;;;;;;;;;;5035786;28;20032;-69
2023/03/03 04:44:04;;;;;;;51.55;28.63;;;;;;;;;;5035777;28;20021;-68
2023/03/03 04:46:50;;;;;;;51.92;30.80;;;;;;;;;;5034579;28;20087;-69
2023/03/03 04:49:36;;;;;;;56.67;30.35;;;;;;;;;;5035844;28;20041;-70
2023/03/03 04:52:21;;;;;;;56.20;31.08;;;;;;;;;;5035832;28;20457;-69
2023/03/03 04:55:07;;;;;;;54.17;30.48;;;;;;;;;;5035568;28;20021;-69
2023/03/03 04:57:53;;;;;;;57.47;31.60;;;;;;;;;;5036269;28;20044;-69
2023/03/03 05:00:38;;;;;;;52.50;30.05;;;;;;;;;;5035293;28;20066;-69
2023/03/03 05:03:25;;;;;;;56.45;31.27;;;;;;;;;;5035082;28;20036;-69
2023/03/03 05:06:11;;;;;;;52.80;29.92;;;;;;;;;;5034789;28;20328;-69
2023/03/03 05:08:56;;;;;;;50.75;29.42;;;;;;;;;;5035020;28;20389;-70
2023/03/03 05:11:42;;;;;;;51.42;29.67;;;;;;;;;;5033396;28;20013;-69
2023/03/03 05:14:28;;;;;;;51.08;29.50;;;;;;;;;;5036017;28;20033;-69
2023/03/03 05:17:13;;;;;;;53.45;29.77;;;;;;;;;;5035534;28;20057;-70
2023/03/03 05:19:59;;;;;;;61.38;32.05;;;;;;;;;;5034667;28;20107;-69
2023/03/03 05:22:44;;;;;;;57.85;33.15;;;;;;;;;;5033562;28;20323;-69
2023/03/03 05:25:30;;;;;;;57.03;31.73;;;;;;;;;;5035501;28;20017;-69
2023/03/03 05:28:16;;;;;;;53.13;30.85;;;;;;;;;;5034427;28;20099;-68
2023/03/03 05:31:01;;;;;;;53.88;30.20;;;;;;;;;;5034535;28;20017;-70
2023/03/03 05:33:47;;;;;;;58.17;31.10;;;;;;;;;;5034630;28;20037;-69
2023/03/03 05:36:32;;;;;;;53.33;30.90;;;;;;;;;;5035233;28;20078;-69
2023/03/03 05:39:18;;;;;;;55.92;30.63;;;;;;;;;;5034570;28;20104;-70
2023/03/03 05:42:04;;;;;;;55.17;30.95;;;;;;;;;;5035916;28;20453;-69
2023/03/03 05:44:49;;;;;;;55.03;30.85;;;;;;;;;;5035885;28;20029;-69
2023/03/03 05:47:35;;;;;;;53.30;30.98;;;;;;;;;;5033908;28;20021;-69
2023/03/03 05:50:21;;;;;;;57.03;31.05;;;;;;;;;;5034016;28;20018;-70
2023/03/03 05:53:06;;;;;;;56.13;30.40;;;;;;;;;;5035987;28;20086;-70
2023/03/03 05:55:52;;;;;;;60.00;32.40;;;;;;;;;;5034236;28;20119;-69
2023/03/03 05:58:38;;;;;;;55.78;32.83;;;;;;;;;;5034975;28;20032;-70
2023/03/03 06:01:23;;;;;;;61.05;33.72;;;;;;;;;;5034266;28;20095;-70
2023/03/03 06:04:09;;;;;;;59.17;32.88;;;;;;;;;;5034307;28;20108;-68
2023/03/03 06:06:54;;;;;;;64.25;35.45;;;;;;;;;;5033726;28;20358;-70
2023/03/03 06:09:40;;;;;;;59.70;33.72;;;;;;;;;;5034813;28;20025;-71
2023/03/03 06:12:25;;;;;;;60.47;32.50;;;;;;;;;;5034460;28;20052;-70
2023/03/03 06:15:11;;;;;;;59.05;33.10;;;;;;;;;;5034773;28;20075;-69
2023/03/03 06:17:57;;;;;;;58.50;33.75;;;;;;;;;;5037519;28;20017;-69
2023/03/03 06:20:42;;;;;;;64.78;33.47;;;;;;;;;;5038410;28;20022;-69
2023/03/03 06:23:28;;;;;;;61.63;34.13;;;;;;;;;;5037211;28;20422;-69
2023/03/03 06:26:13;;;;;;;58.05;33.40;;;;;;;;;;5038837;28;20063;-69
2023/03/03 06:28:59;;;;;;;65.38;35.92;;;;;;;;;;5036440;28;20029;-70
2023/03/03 06:31:45;;;;;;;64.30;36.10;;;;;;;;;;5038961;28;20041;-69
2023/03/03 06:34:31;;;;;;;65.78;37.58;;;;;;;;;;5037779;28;20021;-70
2023/03/03 06:37:16;;;;;;;63.63;36.35;;;;;;;;;;5038483;28;20021;-68
2023/03/03 06:40:02;;;;;;;65.25;37.60;;;;;;;;;;5038256;28;20025;-69
2023/03/03 06:42:48;;;;;;;62.90;36.50;;;;;;;;;;5040065;28;20021;-70
2023/03/03 06:45:34;;;;;;;62.88;35.13;;;;;;;;;;5042034;28;20030;-70
2023/03/03 06:48:19;;;;;;;61.42;34.20;;;;;;;;;;5038463;28;20442;-70
2023/03/03 06:51:13;;;;;;;60.70;34.28;;;;;;;;;;5037405;28;20033;-70
2023/03/03 06:54:08;;;;;;;57.72;32.45;;;;;;;;;;5037517;28;20025;-70
2023/03/03 06:56:57;;;;;;;59.10;33.22;;;;;;;;;;5038501;28;20039;-69
2023/03/03 06:59:42;;;;;;;56.63;32.10;;;;;;;;;;5037940;28;20052;-69
2023/03/03 07:02:28;;;;;;;57.92;31.45;;;;;;;;;;5039449;28;20084;-69
2023/03/03 07:05:15;;;;;;;54.25;31.58;;;;;;;;;;5045983;28;20076;-69
2023/03/03 07:08:00;;;;;;;55.85;31.10;;;;;;;;;;5040192;28;20105;-69
2023/03/03 07:10:47;;;;;;;54.67;32.40;;;;;;;;;;5037077;28;20021;-69
2023/03/03 07:13:33;;;;;;;55.88;32.15;;;;;;;;;;5038109;28;20032;-69
2023/03/03 07:16:23;;;;;;;51.63;31.30;;;;;;;;;;5038068;28;20446;-70
2023/03/03 07:19:41;;;;;;;54.42;32.05;;;;;;;;;;5038491;28;20423;-69
2023/03/03 07:22:27;;;;;;;49.90;29.02;;;;;;;;;;5013138;28;20037;-69
2023/03/03 07:25:21;;;;;;;49.13;29.20;;;;;;;;;;5037949;28;20025;-69
2023/03/03 07:28:39;;;;;;;47.65;29.17;;;;;;;;;;5035666;28;20366;-69
2023/03/03 07:31:27;;;;;;;55.30;29.48;;;;;;;;;;5012209;28;20040;-71
2023/03/03 07:34:17;;;;;;;51.65;31.27;;;;;;;;;;5038786;28;20033;-69
2023/03/03 07:37:09;;;;;;;54.30;30.08;;;;;;;;;;5040958;28;20052;-69
2023/03/03 07:39:54;;;;;;;59.00;34.10;;;;;;;;;;5040151;28;20030;-70
2023/03/03 07:42:40;;;;;;;58.50;34.65;;;;;;;;;;5037828;28;20027;-70
2023/03/03 07:45:28;;;;;;;54.58;32.05;;;;;;;;;;5036992;28;20029;-69
2023/03/03 07:48:25;;;;;;;50.97;30.15;;;;;;;;;;5037353;28;20433;-69
2023/03/03 07:51:26;;;;;;;48.60;29.90;;;;;;;;;;5037114;28;20021;-69
2023/03/03 07:54:30;;;;;;;48.97;29.42;;;;;;;;;;5037305;28;20053;-70
2023/03/03 07:57:16;;;;;;;49.63;29.65;;;;;;;;;;5037319;28;20026;-70
2023/03/03 08:00:27;;;;;;;51.30;30.10;;;;;;;;;;5037210;28;20412;-69
2023/03/03 08:03:18;;;;;;;52.45;30.70;;;;;;;;;;5036491;28;20034;-69
2023/03/03 08:06:25;;;;;;;47.53;29.75;;;;;;;;;;5038301;28;20018;-70
2023/03/03 08:09:10;;;;;;;51.30;29.45;;;;;;;;;;5034525;28;20048;-68
2023/03/03 08:12:10;;;;;;;49.38;30.92;;;;;;;;;;5036556;28;20021;-69
2023/03/03 08:14:57;;;;;;;48.55;29.02;;;;;;;;;;5037186;28;20017;-69
2023/03/03 08:17:44;;;;;;;50.65;29.67;;;;;;;;;;5035684;28;20029;-69
2023/03/03 08:20:29;;;;;;;50.15;30.48;;;;;;;;;;5037094;28;20018;-69
2023/03/03 08:23:16;;;;;;;49.35;31.00;;;;;;;;;;5036687;28;20017;-70
2023/03/03 08:26:01;;;;;;;57.40;32.13;;;;;;;;;;5035691;28;20026;-69
2023/03/03 08:28:47;;;;;;;54.78;32.45;;;;;;;;;;5036374;28;20030;-70
2023/03/03 08:31:32;;;;;;;54.15;31.70;;;;;;;;;;5033780;28;20018;-68
2023/03/03 08:34:18;;;;;;;54.95;32.17;;;;;;;;;;5036112;28;20080;-69
2023/03/03 08:37:04;;;;;;;58.05;34.75;;;;;;;;;;5034013;28;20164;-69
2023/03/03 08:39:49;;;;;;;59.20;33.03;;;;;;;;;;5035480;28;20029;-68
2023/03/03 08:42:35;;;;;;;49.92;30.85;;;;;;;;;;5037262;28;20056;-69
2023/03/03 08:45:21;;;;;;;52.67;31.17;;;;;;;;;;5038042;28;20200;-69
2023/03/03 08:48:06;;;;;;;52.30;31.20;;;;;;;;;;5036216;28;20032;-68
2023/03/03 08:50:52;;;;;;;48.80;30.10;;;;;;;;;;5035151;28;20108;-69
2023/03/03 08:53:37;;;;;;;48.20;30.38;;;;;;;;;;5033758;28;20028;-70
2023/03/03 08:56:23;;;;;;;53.90;31.00;;;;;;;;;;5031142;28;20033;-69
2023/03/03 08:59:08;;;;;;;51.40;29.90;;;;;;;;;;5054275;28;20036;-71
2023/03/03 09:02:07;;;;;;;50.53;30.70;;;;;;;;;;5071618;28;20379;-70
2023/03/03 09:04:52;;;;;;;49.05;30.92;;;;;;;;;;5094799;28;20039;-70
2023/03/03 09:07:38;;;;;;;49.35;30.80;;;;;;;;;;5105944;28;20027;-69
2023/03/03 09:10:29;;;;;;;52.15;31.30;;;;;;;;;;5090921;28;20024;-69
2023/03/03 09:13:17;;;;;;;70.38;30.85;;;;;;;;;;5091783;28;20086;-70
2023/03/03 09:16:10;;;;;;;49.22;30.55;;;;;;;;;;5076103;28;20032;-70
2023/03/03 09:18:56;;;;;;;55.47;31.48;;;;;;;;;;5090172;28;20082;-70
2023/03/03 09:21:42;;;;;;;48.28;29.52;;;;;;;;;;5090831;28;20020;-71
2023/03/03 09:24:34;;;;;;;69.38;34.08;;;;;;;;;;5090910;28;20021;-70
2023/03/03 09:27:28;;;;;;;54.65;31.98;;;;;;;;;;5090762;28;20024;-71
2023/03/03 09:30:26;;;;;;;50.15;30.10;;;;;;;;;;5076343;28;20103;-71
2023/03/03 09:33:28;;;;;;;48.33;30.58;;;;;;;;;;5096125;28;20027;-70
2023/03/03 09:36:16;;;;;;;44.83;29.00;;;;;;;;;;5092757;28;20028;-70
2023/03/03 09:39:14;;;;;;;46.67;29.98;;;;;;;;;;5076796;28;20035;-71
2023/03/03 09:41:59;;;;;;;50.55;30.55;;;;;;;;;;5075911;28;20089;-71
2023/03/03 09:44:47;;;;;;;50.20;31.48;;;;;;;;;;5089979;28;20016;-70
2023/03/03 09:47:32;;;;;;;48.88;30.92;;;;;;;;;;5089634;28;20059;-71
2023/03/03 09:50:25;;;;;;;49.38;30.35;;;;;;;;;;5090220;28;20016;-71
2023/03/03 09:53:46;;;;;;;47.45;29.75;;;;;;;;;;5090475;28;20071;-70
2023/03/03 09:56:37;;;;;;;47.53;29.25;;;;;;;;;;5014007;28;20169;-71
2023/03/03 09:59:25;;;;;;;47.20;30.15;;;;;;;;;;5093131;28;20456;-70
2023/03/03 10:02:30;;;;;;;45.78;28.58;;;;;;;;;;5090565;28;20044;-71
2023/03/03 10:05:25;;;;;;;46.03;30.10;;;;;;;;;;5091060;28;20078;-70
2023/03/03 10:08:18;;;;;;;49.03;30.45;;;;;;;;;;5090705;28;20024;-70
2023/03/03 10:11:11;;;;;;;49.53;30.50;;;;;;;;;;5090507;28;20020;-70
2023/03/03 10:14:02;;;;;;;48.78;29.70;;;;;;;;;;5075856;28;20012;-71
2023/03/03 10:17:00;;;;;;;50.25;30.08;;;;;;;;;;5061942;28;20116;-70
2023/03/03 10:20:04;;;;;;;49.35;30.60;;;;;;;;;;5076709;28;20397;-70
2023/03/03 10:22:55;;;;;;;53.95;32.28;;;;;;;;;;5077539;28;20299;-70
2023/03/03 10:25:42;;;;;;;52.22;31.13;;;;;;;;;;5076017;28;20433;-70
2023/03/03 10:28:48;;;;;;;52.08;32.25;;;;;;;;;;5075961;28;20447;-71
2023/03/03 10:31:52;;;;;;;51.00;31.92;;;;;;;;;;5075184;28;20120;-70
2023/03/03 10:34:57;;;;;;;54.58;32.08;;;;;;;;;;5077442;28;20154;-71
2023/03/03 10:37:49;;;;;;;52.90;32.92;;;;;;;;;;5076798;28;20028;-71
2023/03/03 10:40:44;;;;;;;46.92;30.73;;;;;;;;;;5076064;28;20020;-71
2023/03/03 10:43:35;;;;;;;50.30;31.35;;;;;;;;;;5074991;28;20028;-70
2023/03/03 10:46:28;;;;;;;52.72;31.38;;;;;;;;;;5061677;28;20013;-71
2023/03/03 10:49:17;;;;;;;52.78;30.10;;;;;;;;;;5062186;28;20025;-71
2023/03/03 10:52:03;;;;;;;46.75;29.85;;;;;;;;;;5075894;28;20025;-71
2023/03/03 10:54:51;;;;;;;52.67;31.58;;;;;;;;;;5076953;28;20039;-70
2023/03/03 10:57:45;;;;;;;56.13;33.65;;;;;;;;;;5075899;28;20357;-71
2023/03/03 11:00:34;;;;;;;54.47;33.17;;;;;;;;;;5075415;28;20500;-71
2023/03/03 11:03:39;;;;;;;51.35;31.33;;;;;;;;;;5075883;28;20059;-71
2023/03/03 11:06:28;;;;;;;52.30;31.95;;;;;;;;;;5075458;28;20012;-70
2023/03/03 11:09:32;;;;;;;50.90;31.40;;;;;;;;;;5076173;28;20095;-70
2023/03/03 11:12:26;;;;;;;49.65;31.08;;;;;;;;;;5076591;28;20440;-71
2023/03/03 11:15:24;;;;;;;48.58;30.60;;;;;;;;;;5076150;28;20020;-69
2023/03/03 11:18:28;;;;;;;49.28;30.33;;;;;;;;;;5075392;28;20016;-70
2023/03/03 11:21:20;;;;;;;47.80;29.23;;;;;;;;;;5074692;28;20031;-71
2023/03/03 11:24:14;;;;;;;52.58;31.38;;;;;;;;;;5074396;28;20354;-70
2023/03/03 11:27:00;;;;;;;58.70;32.10;;;;;;;;;;5060764;28;20020;-72
2023/03/03 11:29:52;;;;;;;51.20;30.95;;;;;;;;;;5061139;28;20414;-70
2023/03/03 11:32:43;;;;;;;46.95;29.70;;;;;;;;;;5074786;28;20075;-70
2023/03/03 11:35:29;;;;;;;54.33;31.13;;;;;;;;;;5075408;28;20021;-72
2023/03/03 11:38:33;;;;;;;49.83;28.58;;;;;;;;;;5061360;28;20434;-71
2023/03/03 11:41:21;;;;;;;46.60;28.77;;;;;;;;;;5074327;28;20025;-70
2023/03/03 11:44:20;;;;;;;47.28;29.08;;;;;;;;;;5059415;28;20077;-70
2023/03/03 11:47:24;;;;;;;48.65;28.63;;;;;;;;;;5073936;28;20039;-72
2023/03/03 11:50:22;;;;;;;47.60;29.92;;;;;;;;;;5074346;28;20024;-70
2023/03/03 11:53:23;;;;;;;49.08;31.42;;;;;;;;;;5074961;28;20373;-71
2023/03/03 11:56:14;;;;;;;50.38;29.63;;;;;;;;;;5073749;28;20206;-70
2023/03/03 11:59:18;;;;;;;49.78;30.48;;;;;;;;;;5074791;28;20024;-71
2023/03/03 12:02:30;;;;;;;47.58;28.33;;;;;;;;;;5074116;28;20076;-71
2023/03/03 12:05:25;;;;;;;49.10;29.02;;;;;;;;;;5055986;28;20456;-70
2023/03/03 12:08:33;;;;;;;47.03;29.88;;;;;;;;;;5074021;28;20035;-71
2023/03/03 12:11:51;;;;;;;55.47;31.17;;;;;;;;;;5073812;28;20035;-69
2023/03/03 12:14:49;;;;;;;49.30;29.95;;;;;;;;;;5041763;28;20021;-69
2023/03/03 12:17:40;;;;;;;50.50;29.75;;;;;;;;;;5073805;28;20523;-69
2023/03/03 12:20:31;;;;;;;44.03;28.88;;;;;;;;;;5072970;28;20032;-70
2023/03/03 12:23:37;;;;;;;49.22;29.70;;;;;;;;;;5073676;28;20078;-69
2023/03/03 12:26:42;;;;;;;52.97;32.80;;;;;;;;;;5073805;28;20044;-69
2023/03/03 12:29:36;;;;;;;52.75;29.83;;;;;;;;;;5074390;28;20059;-69
2023/03/03 12:32:31;;;;;;;46.83;29.67;;;;;;;;;;5072834;28;20095;-70
2023/03/03 12:35:20;;;;;;;54.10;31.60;;;;;;;;;;5074181;28;20101;-70
2023/03/03 12:38:14;;;;;;;51.40;30.75;;;;;;;;;;5073570;28;20017;-70
2023/03/03 12:41:02;;;;;;;56.80;31.13;;;;;;;;;;5072924;28;20388;-70
2023/03/03 12:44:00;;;;;;;54.78;31.80;;;;;;;;;;5073076;28;20438;-69
2023/03/03 12:46:48;;;;;;;51.47;31.02;;;;;;;;;;5073465;28;20013;-69
2023/03/03 12:49:47;;;;;;;52.72;30.80;;;;;;;;;;5072966;28;20017;-74
2023/03/03 12:52:41;;;;;;;50.50;31.40;;;;;;;;;;5074070;28;20158;-71
2023/03/03 12:55:45;;;;;;;56.28;32.08;;;;;;;;;;5073867;28;20047;-71
2023/03/03 12:58:31;;;;;;;56.85;33.60;;;;;;;;;;5073489;28;20086;-72
2023/03/03 13:01:35;;;;;;;62.88;35.08;;;;;;;;;;5073920;28;20044;-72
2023/03/03 13:04:38;;;;;;;56.00;33.05;;;;;;;;;;5073208;28;20055;-71
2023/03/03 13:07:30;;;;;;;56.58;33.65;;;;;;;;;;5074249;28;20403;-71
2023/03/03 13:10:37;;;;;;;56.88;32.42;;;;;;;;;;5072849;28;20444;-70
2023/03/03 13:13:30;;;;;;;58.55;32.47;;;;;;;;;;5074230;28;20468;-73
2023/03/03 13:16:27;;;;;;;56.00;33.30;;;;;;;;;;5072819;28;20031;-75
2023/03/03 13:19:20;;;;;;;61.47;33.55;;;;;;;;;;5052996;28;20434;-73
2023/03/03 13:22:24;;;;;;;60.47;33.20;;;;;;;;;;5054144;28;20021;-72
2023/03/03 13:25:25;;;;;;;58.42;34.50;;;;;;;;;;5053522;28;20021;-70
2023/03/03 13:28:16;;;;;;;63.90;34.90;;;;;;;;;;5058032;28;20173;-73
2023/03/03 13:31:14;;;;;;;54.97;32.92;;;;;;;;;;5073870;28;20538;-73
2023/03/03 13:34:00;;;;;;;58.95;33.90;;;;;;;;;;5072516;28;20021;-71
2023/03/03 13:36:51;;;;;;;57.65;33.95;;;;;;;;;;5074055;28;20040;-72
2023/03/03 13:39:57;;;;;;;58.90;34.28;;;;;;;;;;5074068;28;20017;-72
2023/03/03 13:42:51;;;;;;;56.70;34.05;;;;;;;;;;5074346;28;20033;-71
2023/03/03 13:45:56;;;;;;;56.08;33.33;;;;;;;;;;5072638;28;20464;-72
2023/03/03 13:49:00;;;;;;;54.38;31.65;;;;;;;;;;5076948;28;20024;-70
2023/03/03 13:51:59;;;;;;;54.88;31.63;;;;;;;;;;5076509;28;20485;-70
2023/03/03 13:54:45;;;;;;;56.83;32.03;;;;;;;;;;5077510;28;20031;-70
2023/03/03 13:57:39;;;;;;;56.88;33.67;;;;;;;;;;5076220;28;20383;-70
2023/03/03 14:00:35;;;;;;;56.60;32.72;;;;;;;;;;5075605;28;20052;-68
2023/03/03 14:03:36;;;;;;;59.20;33.08;;;;;;;;;;5078796;28;20440;-70
2023/03/03 14:06:25;;;;;;;51.95;33.65;;;;;;;;;;5062955;28;20463;-70
2023/03/03 14:09:22;;;;;;;57.63;33.55;;;;;;;;;;5078390;28;20035;-71
2023/03/03 14:12:31;;;;;;;55.53;34.22;;;;;;;;;;5077883;28;20021;-71
2023/03/03 14:15:20;;;;;;;53.70;32.97;;;;;;;;;;5077672;28;20017;-72
2023/03/03 14:18:09;;;;;;;59.83;35.05;;;;;;;;;;5062260;28;20040;-71
2023/03/03 14:20:58;;;;;;;62.78;35.50;;;;;;;;;;5069547;28;20052;-70
2023/03/03 14:23:58;;;;;;;60.35;34.92;;;;;;;;;;5056494;28;20116;-70
2023/03/03 14:26:51;;;;;;;59.17;34.83;;;;;;;;;;5057373;28;20412;-69
2023/03/03 14:29:36;;;;;;;60.65;35.30;;;;;;;;;;5057109;28;20134;-70
2023/03/03 14:32:24;;;;;;;63.38;37.17;;;;;;;;;;5056860;28;20021;-72
2023/03/03 14:35:16;;;;;;;59.90;36.90;;;;;;;;;;5056572;28;20112;-70
2023/03/03 14:38:11;;;;;;;65.38;37.42;;;;;;;;;;5055475;28;20388;-70
2023/03/03 14:41:16;;;;;;;63.08;37.47;;;;;;;;;;5058507;28;20025;-70
2023/03/03 14:44:22;;;;;;;64.38;38.40;;;;;;;;;;5056655;28;20111;-69
2023/03/03 14:47:07;;;;;;;65.18;38.03;;;;;;;;;;5055472;28;20418;-71
2023/03/03 14:49:54;;;;;;;69.82;39.20;;;;;;;;;;5056665;28;20059;-70
2023/03/03 14:52:40;;;;;;;64.30;38.25;;;;;;;;;;5056109;28;20553;-71
2023/03/03 14:55:36;;;;;;;65.72;38.15;;;;;;;;;;5082589;28;20365;-70
2023/03/03 14:58:33;;;;;;;67.40;38.63;;;;;;;;;;5074857;28;20020;-70
2023/03/03 15:01:30;;;;;;;65.40;38.83;;;;;;;;;;5075448;28;20071;-71
2023/03/03 15:04:15;;;;;;;72.15;40.17;;;;;;;;;;5075789;28;20059;-71
2023/03/03 15:07:18;;;;;;;61.25;37.30;;;;;;;;;;5076625;28;20048;-68
2023/03/03 15:10:06;;;;;;;63.75;37.22;;;;;;;;;;5063182;28;20063;-70
2023/03/03 15:12:52;;;;;;;66.45;37.50;;;;;;;;;;5077934;28;20441;-68
2023/03/03 15:15:47;;;;;;;63.33;36.08;;;;;;;;;;5077189;28;20021;-67
2023/03/03 15:18:32;;;;;;;64.15;36.65;;;;;;;;;;5075704;28;20469;-67
2023/03/03 15:21:22;;;;;;;65.78;37.17;;;;;;;;;;5075565;28;20040;-68
2023/03/03 15:24:11;;;;;;;64.35;37.17;;;;;;;;;;5075764;28;20017;-69
2023/03/03 15:27:05;;;;;;;67.85;38.53;;;;;;;;;;5075661;28;20020;-69
2023/03/03 15:29:56;;;;;;;64.82;37.20;;;;;;;;;;5075363;28;20104;-71
2023/03/03 15:32:42;;;;;;;65.45;38.42;;;;;;;;;;5074825;28;20103;-71
2023/03/03 15:35:31;;;;;;;64.78;37.67;;;;;;;;;;5062724;28;20352;-69
2023/03/03 15:38:22;;;;;;;64.72;36.92;;;;;;;;;;5074856;28;20021;-70
2023/03/03 15:41:26;;;;;;;65.30;37.55;;;;;;;;;;5075359;28;20433;-70
2023/03/03 15:44:30;;;;;;;64.70;37.97;;;;;;;;;;5073946;28;20361;-71
2023/03/03 15:47:21;;;;;;;64.03;37.40;;;;;;;;;;5074915;28;20108;-72
2023/03/03 15:50:07;;;;;;;66.55;38.17;;;;;;;;;;5059703;28;20031;-70
2023/03/03 15:52:57;;;;;;;66.45;36.72;;;;;;;;;;5074700;28;20031;-69
2023/03/03 15:55:58;;;;;;;61.20;37.13;;;;;;;;;;5074575;28;20024;-69
2023/03/03 15:58:52;;;;;;;62.50;36.92;;;;;;;;;;5075356;28;20020;-70
2023/03/03 16:01:45;;;;;;;66.22;37.63;;;;;;;;;;5074527;28;20147;-72
2023/03/03 16:04:33;;;;;;;63.35;37.90;;;;;;;;;;5074916;28;20444;-69
2023/03/03 16:07:21;;;;;;;68.40;39.88;;;;;;;;;;5075008;28;20031;-69
2023/03/03 16:10:28;;;;;;;64.45;37.25;;;;;;;;;;5060396;28;20021;-70
2023/03/03 16:13:31;;;;;;;64.43;37.60;;;;;;;;;;5062145;28;20021;-70
2023/03/03 16:16:29;;;;;;;68.10;38.92;;;;;;;;;;5074220;28;20016;-72
2023/03/03 16:19:33;;;;;;;71.55;41.53;;;;;;;;;;5074553;28;20044;-71
2023/03/03 16:22:28;;;;;;;70.53;39.67;;;;;;;;;;5073536;28;20107;-71
2023/03/03 16:25:14;;;;;;;64.68;39.55;;;;;;;;;;5074711;28;20016;-70
2023/03/03 16:28:04;;;;;;;67.38;39.65;;;;;;;;;;5074356;28;20048;-70
2023/03/03 16:31:09;;;;;;;66.68;39.90;;;;;;;;;;5074036;28;20111;-70